sensor_id;sensor_type;location;lat;lon;timestamp;pressure;altitude;pressure_sealevel;temperature;humidity
79645;BME280;69117;47.148;18.954;2023-08-06T00:02:40;99280.28;;;18.35;100.00
79645;BME280;69117;47.148;18.954;2023-08-06T00:05:42;99280.66;;;18.38;100.00
79645;BME280;69117;47.148;18.954;2023-08-06T00:08:44;99285.91;;;18.45;100.00
79645;BME280;69117;47.148;18.954;2023-08-06T00:11:46;99286.22;;;18.37;100.00
79645;BME280;69117;47.148;18.954;2023-08-06T00:14:52;99290.72;;;18.36;100.00
79645;BME280;69117;47.148;18.954;2023-08-06T00:17:54;99291.63;;;18.30;100.00
79645;BME280;69117;47.148;18.954;2023-08-06T00:20:56;99293.84;;;18.33;100.00
79645;BME280;69117;47.148;18.954;2023-08-06T00:23:57;99300.41;;;18.37;100.00
79645;BME280;69117;47.148;18.954;2023-08-06T00:26:59;99293.47;;;18.29;100.00
79645;BME280;69117;47.148;18.954;2023-08-06T00:30:01;99306.84;;;18.29;100.00
79645;BME280;69117;47.148;18.954;2023-08-06T00:33:02;99302.03;;;18.38;100.00
79645;BME280;69117;47.148;18.954;2023-08-06T00:36:04;99293.91;;;18.26;100.00
79645;BME280;69117;47.148;18.954;2023-08-06T00:39:06;99283.66;;;18.23;100.00
79645;BME280;69117;47.148;18.954;2023-08-06T00:42:08;99264.94;;;18.23;100.00
79645;BME280;69117;47.148;18.954;2023-08-06T00:45:10;99256.84;;;18.12;100.00
79645;BME280;69117;47.148;18.954;2023-08-06T00:48:11;99274.00;;;18.04;100.00
79645;BME280;69117;47.148;18.954;2023-08-06T00:51:14;99267.88;;;18.22;100.00
79645;BME280;69117;47.148;18.954;2023-08-06T00:54:16;99251.81;;;18.03;100.00
79645;BME280;69117;47.148;18.954;2023-08-06T00:57:18;99257.16;;;18.03;100.00
79645;BME280;69117;47.148;18.954;2023-08-06T01:00:22;99243.53;;;18.05;100.00
79645;BME280;69117;47.148;18.954;2023-08-06T01:03:24;99236.03;;;17.95;100.00
79645;BME280;69117;47.148;18.954;2023-08-06T01:06:48;99244.78;;;18.02;100.00
79645;BME280;69117;47.148;18.954;2023-08-06T01:10:15;99239.44;;;18.02;100.00
79645;BME280;69117;47.148;18.954;2023-08-06T01:16:41;99248.06;;;18.04;100.00
79645;BME280;69117;47.148;18.954;2023-08-06T01:19:43;99257.97;;;18.04;100.00
79645;BME280;69117;47.148;18.954;2023-08-06T01:22:45;99260.19;;;18.07;100.00
79645;BME280;69117;47.148;18.954;2023-08-06T01:26:08;99252.00;;;18.02;100.00
79645;BME280;69117;47.148;18.954;2023-08-06T01:29:16;99244.06;;;17.95;100.00
79645;BME280;69117;47.148;18.954;2023-08-06T01:32:21;99227.25;;;17.88;100.00
79645;BME280;69117;47.148;18.954;2023-08-06T01:35:22;99222.56;;;17.83;100.00
79645;BME280;69117;47.148;18.954;2023-08-06T01:38:24;99213.94;;;17.81;100.00
79645;BME280;69117;47.148;18.954;2023-08-06T01:41:26;99209.66;;;17.80;100.00
79645;BME280;69117;47.148;18.954;2023-08-06T01:44:28;99219.66;;;17.85;100.00
79645;BME280;69117;47.148;18.954;2023-08-06T01:47:30;99213.09;;;18.06;100.00
79645;BME280;69117;47.148;18.954;2023-08-06T01:50:32;99205.75;;;18.01;100.00
79645;BME280;69117;47.148;18.954;2023-08-06T01:53:34;99198.91;;;18.05;100.00
79645;BME280;69117;47.148;18.954;2023-08-06T01:56:35;99185.63;;;17.99;100.00
79645;BME280;69117;47.148;18.954;2023-08-06T01:59:37;99188.53;;;17.97;100.00
79645;BME280;69117;47.148;18.954;2023-08-06T02:02:38;99181.91;;;18.00;100.00
79645;BME280;69117;47.148;18.954;2023-08-06T02:05:42;99185.03;;;17.97;100.00
79645;BME280;69117;47.148;18.954;2023-08-06T02:08:44;99182.97;;;17.99;100.00
79645;BME280;69117;47.148;18.954;2023-08-06T02:11:45;99175.81;;;17.93;100.00
79645;BME280;69117;47.148;18.954;2023-08-06T02:14:47;99157.94;;;17.93;100.00
79645;BME280;69117;47.148;18.954;2023-08-06T02:17:49;99152.38;;;17.95;100.00
79645;BME280;69117;47.148;18.954;2023-08-06T02:20:59;99145.19;;;17.95;100.00
79645;BME280;69117;47.148;18.954;2023-08-06T02:24:02;99148.66;;;17.96;100.00
79645;BME280;69117;47.148;18.954;2023-08-06T02:27:03;99155.94;;;18.07;100.00
79645;BME280;69117;47.148;18.954;2023-08-06T02:30:06;99153.56;;;17.99;100.00
79645;BME280;69117;47.148;18.954;2023-08-06T02:33:08;99153.91;;;18.02;100.00
79645;BME280;69117;47.148;18.954;2023-08-06T02:36:09;99145.63;;;17.92;100.00
79645;BME280;69117;47.148;18.954;2023-08-06T02:39:11;99136.25;;;17.83;100.00
79645;BME280;69117;47.148;18.954;2023-08-06T02:42:12;99141.72;;;17.88;100.00
79645;BME280;69117;47.148;18.954;2023-08-06T02:45:14;99160.84;;;17.92;100.00
79645;BME280;69117;47.148;18.954;2023-08-06T02:48:16;99147.84;;;17.95;100.00
79645;BME280;69117;47.148;18.954;2023-08-06T02:51:19;99143.53;;;17.94;100.00
79645;BME280;69117;47.148;18.954;2023-08-06T02:54:21;99136.03;;;17.84;100.00
79645;BME280;69117;47.148;18.954;2023-08-06T02:57:23;99146.72;;;17.84;100.00
79645;BME280;69117;47.148;18.954;2023-08-06T03:00:24;99146.16;;;18.01;100.00
79645;BME280;69117;47.148;18.954;2023-08-06T03:03:26;99151.69;;;17.99;100.00
79645;BME280;69117;47.148;18.954;2023-08-06T03:06:28;99145.19;;;17.95;100.00
79645;BME280;69117;47.148;18.954;2023-08-06T03:09:30;99160.59;;;17.93;100.00
79645;BME280;69117;47.148;18.954;2023-08-06T03:12:31;99158.00;;;17.87;100.00
79645;BME280;69117;47.148;18.954;2023-08-06T03:15:33;99159.69;;;17.81;100.00
79645;BME280;69117;47.148;18.954;2023-08-06T03:18:36;99168.53;;;17.81;100.00
79645;BME280;69117;47.148;18.954;2023-08-06T03:21:38;99164.44;;;17.79;100.00
79645;BME280;69117;47.148;18.954;2023-08-06T03:24:39;99147.19;;;17.75;100.00
79645;BME280;69117;47.148;18.954;2023-08-06T03:27:41;99152.63;;;17.68;100.00
79645;BME280;69117;47.148;18.954;2023-08-06T03:30:43;99155.44;;;17.73;100.00
79645;BME280;69117;47.148;18.954;2023-08-06T03:33:44;99162.41;;;17.74;100.00
79645;BME280;69117;47.148;18.954;2023-08-06T03:36:46;99152.06;;;17.84;100.00
79645;BME280;69117;47.148;18.954;2023-08-06T03:39:47;99138.56;;;17.73;100.00
79645;BME280;69117;47.148;18.954;2023-08-06T03:42:49;99145.56;;;17.74;100.00
79645;BME280;69117;47.148;18.954;2023-08-06T03:45:51;99148.09;;;17.69;100.00
79645;BME280;69117;47.148;18.954;2023-08-06T03:48:52;99145.31;;;17.57;100.00
79645;BME280;69117;47.148;18.954;2023-08-06T03:51:54;99145.75;;;17.54;100.00
79645;BME280;69117;47.148;18.954;2023-08-06T03:54:56;99148.78;;;17.57;100.00
79645;BME280;69117;47.148;18.954;2023-08-06T03:57:57;99136.69;;;17.55;100.00
79645;BME280;69117;47.148;18.954;2023-08-06T04:01:02;99124.22;;;17.49;100.00
79645;BME280;69117;47.148;18.954;2023-08-06T04:04:04;99145.31;;;17.57;100.00
79645;BME280;69117;47.148;18.954;2023-08-06T04:07:06;99119.56;;;17.44;100.00
79645;BME280;69117;47.148;18.954;2023-08-06T04:10:08;99140.09;;;17.44;100.00
79645;BME280;69117;47.148;18.954;2023-08-06T04:13:10;99143.34;;;17.46;100.00
79645;BME280;69117;47.148;18.954;2023-08-06T04:16:11;99152.41;;;17.45;100.00
79645;BME280;69117;47.148;18.954;2023-08-06T04:19:14;99146.25;;;17.44;100.00
79645;BME280;69117;47.148;18.954;2023-08-06T04:22:16;99137.69;;;17.35;100.00
79645;BME280;69117;47.148;18.954;2023-08-06T04:25:18;99148.13;;;17.44;100.00
79645;BME280;69117;47.148;18.954;2023-08-06T04:28:22;99122.56;;;17.29;100.00
79645;BME280;69117;47.148;18.954;2023-08-06T04:31:24;99139.44;;;17.48;100.00
79645;BME280;69117;47.148;18.954;2023-08-06T04:34:25;99139.13;;;17.38;100.00
79645;BME280;69117;47.148;18.954;2023-08-06T04:37:27;99135.78;;;17.43;100.00
79645;BME280;69117;47.148;18.954;2023-08-06T04:40:29;99134.38;;;17.40;100.00
79645;BME280;69117;47.148;18.954;2023-08-06T04:43:30;99113.56;;;17.24;100.00
79645;BME280;69117;47.148;18.954;2023-08-06T04:46:32;99124.97;;;17.37;100.00
79645;BME280;69117;47.148;18.954;2023-08-06T04:49:34;99124.19;;;17.30;100.00
79645;BME280;69117;47.148;18.954;2023-08-06T04:52:37;99126.84;;;17.30;100.00
79645;BME280;69117;47.148;18.954;2023-08-06T04:55:39;99123.97;;;17.32;100.00
79645;BME280;69117;47.148;18.954;2023-08-06T04:58:41;99117.03;;;17.31;100.00
79645;BME280;69117;47.148;18.954;2023-08-06T05:01:42;99107.91;;;17.38;100.00
79645;BME280;69117;47.148;18.954;2023-08-06T05:04:44;99115.28;;;17.36;100.00
79645;BME280;69117;47.148;18.954;2023-08-06T05:07:48;99106.53;;;17.29;100.00
79645;BME280;69117;47.148;18.954;2023-08-06T05:10:50;99111.63;;;17.37;100.00
79645;BME280;69117;47.148;18.954;2023-08-06T05:13:52;99112.06;;;17.34;100.00
79645;BME280;69117;47.148;18.954;2023-08-06T05:16:53;99109.31;;;17.41;100.00
79645;BME280;69117;47.148;18.954;2023-08-06T05:19:55;99095.44;;;17.32;100.00
79645;BME280;69117;47.148;18.954;2023-08-06T05:22:56;99110.19;;;17.35;100.00
79645;BME280;69117;47.148;18.954;2023-08-06T05:25:58;99093.81;;;17.31;100.00
79645;BME280;69117;47.148;18.954;2023-08-06T05:29:00;99094.19;;;17.35;100.00
79645;BME280;69117;47.148;18.954;2023-08-06T05:32:02;99089.22;;;17.38;100.00
79645;BME280;69117;47.148;18.954;2023-08-06T05:35:05;99098.25;;;17.37;100.00
79645;BME280;69117;47.148;18.954;2023-08-06T05:38:07;99107.63;;;17.47;100.00
79645;BME280;69117;47.148;18.954;2023-08-06T05:41:09;99094.53;;;17.38;100.00
79645;BME280;69117;47.148;18.954;2023-08-06T05:44:11;99097.00;;;17.40;100.00
79645;BME280;69117;47.148;18.954;2023-08-06T05:47:12;99106.41;;;17.43;100.00
79645;BME280;69117;47.148;18.954;2023-08-06T05:50:14;99103.09;;;17.47;100.00
79645;BME280;69117;47.148;18.954;2023-08-06T05:53:16;99089.22;;;17.38;100.00
79645;BME280;69117;47.148;18.954;2023-08-06T05:56:17;99075.47;;;17.35;100.00
79645;BME280;69117;47.148;18.954;2023-08-06T05:59:19;99073.78;;;17.40;100.00
79645;BME280;69117;47.148;18.954;2023-08-06T06:02:21;99090.09;;;17.51;100.00
79645;BME280;69117;47.148;18.954;2023-08-06T06:05:22;99094.38;;;17.58;100.00
79645;BME280;69117;47.148;18.954;2023-08-06T06:08:24;99092.09;;;17.37;100.00
79645;BME280;69117;47.148;18.954;2023-08-06T06:11:25;99091.44;;;17.42;100.00
79645;BME280;69117;47.148;18.954;2023-08-06T06:14:27;99103.91;;;17.48;100.00
79645;BME280;69117;47.148;18.954;2023-08-06T06:17:29;99117.19;;;17.54;100.00
79645;BME280;69117;47.148;18.954;2023-08-06T06:20:32;99118.69;;;17.50;100.00
79645;BME280;69117;47.148;18.954;2023-08-06T06:23:34;99102.66;;;17.50;100.00
79645;BME280;69117;47.148;18.954;2023-08-06T06:26:35;99116.00;;;17.50;100.00
79645;BME280;69117;47.148;18.954;2023-08-06T06:29:37;99109.25;;;17.48;100.00
79645;BME280;69117;47.148;18.954;2023-08-06T06:32:39;99110.16;;;17.60;100.00
79645;BME280;69117;47.148;18.954;2023-08-06T06:35:42;99109.19;;;17.54;100.00
79645;BME280;69117;47.148;18.954;2023-08-06T06:38:43;99119.81;;;17.36;100.00
79645;BME280;69117;47.148;18.954;2023-08-06T06:41:45;99117.66;;;17.26;100.00
79645;BME280;69117;47.148;18.954;2023-08-06T06:44:47;99140.97;;;17.37;100.00
79645;BME280;69117;47.148;18.954;2023-08-06T06:47:48;99137.50;;;17.37;100.00
79645;BME280;69117;47.148;18.954;2023-08-06T06:50:50;99146.16;;;17.32;100.00
79645;BME280;69117;47.148;18.954;2023-08-06T06:53:52;99142.56;;;17.20;100.00
79645;BME280;69117;47.148;18.954;2023-08-06T06:56:53;99142.34;;;17.47;100.00
79645;BME280;69117;47.148;18.954;2023-08-06T06:59:55;99140.25;;;17.49;100.00
79645;BME280;69117;47.148;18.954;2023-08-06T07:02:57;99140.09;;;17.44;100.00
79645;BME280;69117;47.148;18.954;2023-08-06T07:05:59;99135.84;;;17.36;100.00
79645;BME280;69117;47.148;18.954;2023-08-06T07:09:01;99136.66;;;17.36;100.00
79645;BME280;69117;47.148;18.954;2023-08-06T07:12:02;99146.09;;;17.39;100.00
79645;BME280;69117;47.148;18.954;2023-08-06T07:15:06;99146.97;;;17.33;100.00
79645;BME280;69117;47.148;18.954;2023-08-06T07:18:08;99160.47;;;17.38;100.00
79645;BME280;69117;47.148;18.954;2023-08-06T07:21:09;99170.28;;;17.44;100.00
79645;BME280;69117;47.148;18.954;2023-08-06T07:24:11;99176.69;;;17.43;100.00
79645;BME280;69117;47.148;18.954;2023-08-06T07:27:13;99173.41;;;17.41;100.00
79645;BME280;69117;47.148;18.954;2023-08-06T07:30:14;99168.13;;;17.34;100.00
79645;BME280;69117;47.148;18.954;2023-08-06T07:33:16;99158.13;;;17.23;100.00
79645;BME280;69117;47.148;18.954;2023-08-06T07:36:18;99148.81;;;17.32;100.00
79645;BME280;69117;47.148;18.954;2023-08-06T07:39:20;99161.28;;;17.38;100.00
79645;BME280;69117;47.148;18.954;2023-08-06T07:42:22;99146.69;;;17.41;100.00
79645;BME280;69117;47.148;18.954;2023-08-06T07:45:24;99150.72;;;17.50;100.00
79645;BME280;69117;47.148;18.954;2023-08-06T07:48:26;99154.53;;;17.61;100.00
79645;BME280;69117;47.148;18.954;2023-08-06T07:51:28;99134.88;;;17.55;100.00
79645;BME280;69117;47.148;18.954;2023-08-06T07:54:29;99147.72;;;17.65;100.00
79645;BME280;69117;47.148;18.954;2023-08-06T07:57:31;99155.88;;;17.70;100.00
79645;BME280;69117;47.148;18.954;2023-08-06T08:00:33;99161.69;;;17.67;100.00
79645;BME280;69117;47.148;18.954;2023-08-06T08:03:35;99161.03;;;17.90;100.00
79645;BME280;69117;47.148;18.954;2023-08-06T08:06:37;99163.59;;;18.03;100.00
79645;BME280;69117;47.148;18.954;2023-08-06T08:09:38;99160.59;;;17.93;100.00
79645;BME280;69117;47.148;18.954;2023-08-06T08:12:40;99147.38;;;17.80;100.00
79645;BME280;69117;47.148;18.954;2023-08-06T08:15:42;99149.75;;;17.88;100.00
79645;BME280;69117;47.148;18.954;2023-08-06T08:18:43;99155.78;;;18.02;100.00
79645;BME280;69117;47.148;18.954;2023-08-06T08:21:45;99147.97;;;17.82;100.00
79645;BME280;69117;47.148;18.954;2023-08-06T08:24:47;99176.09;;;17.84;100.00
79645;BME280;69117;47.148;18.954;2023-08-06T08:27:48;99182.31;;;17.78;100.00
79645;BME280;69117;47.148;18.954;2023-08-06T08:30:50;99189.34;;;17.73;100.00
79645;BME280;69117;47.148;18.954;2023-08-06T08:33:51;99197.78;;;17.70;100.00
79645;BME280;69117;47.148;18.954;2023-08-06T08:36:56;99194.75;;;17.66;100.00
79645;BME280;69117;47.148;18.954;2023-08-06T08:39:58;99193.66;;;17.74;100.00
79645;BME280;69117;47.148;18.954;2023-08-06T08:43:00;99193.63;;;17.80;100.00
79645;BME280;69117;47.148;18.954;2023-08-06T08:46:03;99192.66;;;17.93;100.00
79645;BME280;69117;47.148;18.954;2023-08-06T08:49:07;99186.50;;;17.93;100.00
79645;BME280;69117;47.148;18.954;2023-08-06T08:52:10;99184.72;;;17.87;100.00
79645;BME280;69117;47.148;18.954;2023-08-06T08:55:15;99189.13;;;17.99;100.00
79645;BME280;69117;47.148;18.954;2023-08-06T08:58:17;99182.78;;;17.94;100.00
79645;BME280;69117;47.148;18.954;2023-08-06T09:01:21;99180.56;;;17.91;100.00
79645;BME280;69117;47.148;18.954;2023-08-06T09:04:23;99178.88;;;17.96;100.00
79645;BME280;69117;47.148;18.954;2023-08-06T09:07:26;99184.28;;;17.90;100.00
79645;BME280;69117;47.148;18.954;2023-08-06T09:10:28;99184.28;;;17.90;100.00
79645;BME280;69117;47.148;18.954;2023-08-06T09:13:30;99183.31;;;17.84;100.00
79645;BME280;69117;47.148;18.954;2023-08-06T09:16:34;99192.81;;;17.80;100.00
79645;BME280;69117;47.148;18.954;2023-08-06T09:19:36;99202.50;;;17.74;100.00
79645;BME280;69117;47.148;18.954;2023-08-06T09:22:38;99200.22;;;17.78;100.00
79645;BME280;69117;47.148;18.954;2023-08-06T09:25:40;99194.97;;;17.90;100.00
79645;BME280;69117;47.148;18.954;2023-08-06T09:28:42;99190.31;;;18.03;100.00
79645;BME280;69117;47.148;18.954;2023-08-06T09:31:47;99194.19;;;18.07;100.00
79645;BME280;69117;47.148;18.954;2023-08-06T09:34:55;99216.22;;;18.03;100.00
79645;BME280;69117;47.148;18.954;2023-08-06T09:38:08;99198.91;;;17.87;100.00
79645;BME280;69117;47.148;18.954;2023-08-06T09:41:26;99207.00;;;17.99;100.00
79645;BME280;69117;47.148;18.954;2023-08-06T09:44:30;99204.97;;;17.94;100.00
79645;BME280;69117;47.148;18.954;2023-08-06T09:47:32;99216.19;;;17.84;100.00
79645;BME280;69117;47.148;18.954;2023-08-06T09:50:35;99203.38;;;17.93;100.00
79645;BME280;69117;47.148;18.954;2023-08-06T09:53:39;99211.53;;;17.98;100.00
79645;BME280;69117;47.148;18.954;2023-08-06T09:56:42;99203.91;;;18.20;100.00
79645;BME280;69117;47.148;18.954;2023-08-06T09:59:44;99222.84;;;18.37;100.00
79645;BME280;69117;47.148;18.954;2023-08-06T10:02:49;99221.44;;;18.35;100.00
79645;BME280;69117;47.148;18.954;2023-08-06T10:05:55;99231.00;;;18.24;100.00
79645;BME280;69117;47.148;18.954;2023-08-06T10:08:57;99224.56;;;18.13;100.00
79645;BME280;69117;47.148;18.954;2023-08-06T10:11:59;99229.81;;;18.01;100.00
79645;BME280;69117;47.148;18.954;2023-08-06T10:15:05;99235.66;;;17.92;100.00
79645;BME280;69117;47.148;18.954;2023-08-06T10:18:08;99242.00;;;17.97;100.00
79645;BME280;69117;47.148;18.954;2023-08-06T10:21:10;99238.53;;;17.90;100.00
79645;BME280;69117;47.148;18.954;2023-08-06T10:24:13;99248.97;;;17.98;100.00
79645;BME280;69117;47.148;18.954;2023-08-06T10:27:35;99246.75;;;18.14;100.00
79645;BME280;69117;47.148;18.954;2023-08-06T10:30:47;99246.38;;;18.10;100.00
79645;BME280;69117;47.148;18.954;2023-08-06T10:33:50;99245.72;;;18.15;100.00
79645;BME280;69117;47.148;18.954;2023-08-06T10:36:54;99251.81;;;18.22;100.00
79645;BME280;69117;47.148;18.954;2023-08-06T10:39:56;99262.97;;;18.19;100.00
79645;BME280;69117;47.148;18.954;2023-08-06T10:43:02;99246.75;;;18.14;100.00
79645;BME280;69117;47.148;18.954;2023-08-06T10:46:10;99269.56;;;18.35;100.00
79645;BME280;69117;47.148;18.954;2023-08-06T10:49:12;99263.50;;;18.46;100.00
79645;BME280;69117;47.148;18.954;2023-08-06T10:52:15;99261.03;;;18.44;100.00
79645;BME280;69117;47.148;18.954;2023-08-06T10:55:28;99261.47;;;18.60;100.00
79645;BME280;69117;47.148;18.954;2023-08-06T10:58:33;99262.66;;;18.64;100.00
79645;BME280;69117;47.148;18.954;2023-08-06T11:01:35;99256.47;;;18.63;100.00
79645;BME280;69117;47.148;18.954;2023-08-06T11:04:38;99247.81;;;18.68;100.00
79645;BME280;69117;47.148;18.954;2023-08-06T11:07:40;99260.88;;;18.58;100.00
79645;BME280;69117;47.148;18.954;2023-08-06T11:10:41;99265.28;;;18.52;100.00
79645;BME280;69117;47.148;18.954;2023-08-06T11:14:02;99272.00;;;18.54;100.00
79645;BME280;69117;47.148;18.954;2023-08-06T11:17:05;99264.75;;;18.62;100.00
79645;BME280;69117;47.148;18.954;2023-08-06T11:20:08;99273.88;;;18.54;100.00
79645;BME280;69117;47.148;18.954;2023-08-06T11:23:10;99253.09;;;18.56;100.00
79645;BME280;69117;47.148;18.954;2023-08-06T11:26:11;99260.56;;;18.66;100.00
79645;BME280;69117;47.148;18.954;2023-08-06T11:29:16;99263.50;;;18.64;100.00
79645;BME280;69117;47.148;18.954;2023-08-06T11:32:18;99271.00;;;18.56;100.00
79645;BME280;69117;47.148;18.954;2023-08-06T11:35:19;99274.78;;;18.48;100.00
79645;BME280;69117;47.148;18.954;2023-08-06T11:38:21;99283.41;;;18.50;100.00
79645;BME280;69117;47.148;18.954;2023-08-06T11:41:23;99285.38;;;18.36;100.00
79645;BME280;69117;47.148;18.954;2023-08-06T11:44:24;99296.69;;;18.38;100.00
79645;BME280;69117;47.148;18.954;2023-08-06T11:47:26;99299.53;;;18.43;100.00
79645;BME280;69117;47.148;18.954;2023-08-06T11:50:28;99289.72;;;18.56;100.00
79645;BME280;69117;47.148;18.954;2023-08-06T11:53:30;99299.41;;;18.75;100.00
79645;BME280;69117;47.148;18.954;2023-08-06T11:56:31;99291.94;;;18.95;100.00
79645;BME280;69117;47.148;18.954;2023-08-06T11:59:33;99291.22;;;18.88;100.00
79645;BME280;69117;47.148;18.954;2023-08-06T12:02:35;99294.84;;;18.94;100.00
79645;BME280;69117;47.148;18.954;2023-08-06T12:05:38;99304.22;;;18.85;100.00
79645;BME280;69117;47.148;18.954;2023-08-06T12:08:40;99301.06;;;18.76;100.00
79645;BME280;69117;47.148;18.954;2023-08-06T12:11:43;99301.88;;;18.76;100.00
79645;BME280;69117;47.148;18.954;2023-08-06T12:14:45;99289.94;;;18.72;100.00
79645;BME280;69117;47.148;18.954;2023-08-06T12:17:47;99303.28;;;18.79;100.00
79645;BME280;69117;47.148;18.954;2023-08-06T12:20:48;99292.25;;;18.87;100.00
79645;BME280;69117;47.148;18.954;2023-08-06T12:23:50;99299.75;;;19.15;100.00
79645;BME280;69117;47.148;18.954;2023-08-06T12:26:52;99294.50;;;19.20;100.00
79645;BME280;69117;47.148;18.954;2023-08-06T12:29:53;99292.81;;;19.08;100.00
79645;BME280;69117;47.148;18.954;2023-08-06T12:32:55;99306.22;;;19.08;100.00
79645;BME280;69117;47.148;18.954;2023-08-06T12:35:57;99298.13;;;18.96;100.00
79645;BME280;69117;47.148;18.954;2023-08-06T12:38:59;99304.66;;;19.00;100.00
79645;BME280;69117;47.148;18.954;2023-08-06T12:42:01;99307.47;;;19.05;100.00
79645;BME280;69117;47.148;18.954;2023-08-06T12:45:10;99310.44;;;18.97;100.00
79645;BME280;69117;47.148;18.954;2023-08-06T12:48:12;99318.88;;;19.01;100.00
79645;BME280;69117;47.148;18.954;2023-08-06T12:51:14;99323.91;;;18.90;100.00
79645;BME280;69117;47.148;18.954;2023-08-06T12:54:21;99323.34;;;18.88;100.00
79645;BME280;69117;47.148;18.954;2023-08-06T12:57:22;99327.84;;;18.88;100.00
79645;BME280;69117;47.148;18.954;2023-08-06T13:00:26;99332.03;;;18.84;100.00
79645;BME280;69117;47.148;18.954;2023-08-06T13:03:28;99336.50;;;18.90;100.00
79645;BME280;69117;47.148;18.954;2023-08-06T13:06:33;99339.09;;;18.78;100.00
79645;BME280;69117;47.148;18.954;2023-08-06T13:09:38;99344.06;;;18.74;100.00
79645;BME280;69117;47.148;18.954;2023-08-06T13:12:40;99344.44;;;18.78;100.00
79645;BME280;69117;47.148;18.954;2023-08-06T13:15:41;99352.09;;;18.74;100.00
79645;BME280;69117;47.148;18.954;2023-08-06T13:18:43;99362.19;;;18.72;100.00
79645;BME280;69117;47.148;18.954;2023-08-06T13:24:51;99366.59;;;18.42;100.00
79645;BME280;69117;47.148;18.954;2023-08-06T13:27:53;99354.03;;;18.42;100.00
79645;BME280;69117;47.148;18.954;2023-08-06T13:30:55;99358.81;;;18.40;100.00
79645;BME280;69117;47.148;18.954;2023-08-06T13:33:57;99362.91;;;18.43;100.00
79645;BME280;69117;47.148;18.954;2023-08-06T13:37:01;99363.38;;;18.33;100.00
79645;BME280;69117;47.148;18.954;2023-08-06T13:40:04;99356.84;;;18.29;100.00
79645;BME280;69117;47.148;18.954;2023-08-06T13:43:06;99369.16;;;18.30;100.00
79645;BME280;69117;47.148;18.954;2023-08-06T13:46:07;99361.75;;;18.32;100.00
79645;BME280;69117;47.148;18.954;2023-08-06T13:49:10;99377.34;;;18.35;100.00
79645;BME280;69117;47.148;18.954;2023-08-06T13:52:12;99382.44;;;18.18;100.00
79645;BME280;69117;47.148;18.954;2023-08-06T13:55:22;99372.47;;;17.69;100.00
79645;BME280;69117;47.148;18.954;2023-08-06T13:58:24;99393.28;;;17.60;100.00
79645;BME280;69117;47.148;18.954;2023-08-06T14:01:27;99396.81;;;17.54;100.00
79645;BME280;69117;47.148;18.954;2023-08-06T14:04:48;99398.63;;;17.60;100.00
79645;BME280;69117;47.148;18.954;2023-08-06T14:07:49;99402.47;;;17.77;100.00
79645;BME280;69117;47.148;18.954;2023-08-06T14:10:51;99403.03;;;17.86;100.00
79645;BME280;69117;47.148;18.954;2023-08-06T14:13:53;99400.75;;;18.15;100.00
79645;BME280;69117;47.148;18.954;2023-08-06T14:16:55;99406.06;;;18.46;100.00
79645;BME280;69117;47.148;18.954;2023-08-06T14:19:58;99403.59;;;18.70;100.00
79645;BME280;69117;47.148;18.954;2023-08-06T14:23:00;99410.34;;;18.79;100.00
79645;BME280;69117;47.148;18.954;2023-08-06T14:26:02;99429.97;;;18.91;100.00
79645;BME280;69117;47.148;18.954;2023-08-06T14:29:04;99417.16;;;18.93;100.00
79645;BME280;69117;47.148;18.954;2023-08-06T14:32:06;99402.81;;;19.06;100.00
79645;BME280;69117;47.148;18.954;2023-08-06T14:35:08;99409.72;;;18.95;100.00
79645;BME280;69117;47.148;18.954;2023-08-06T14:38:10;99402.44;;;18.84;100.00
79645;BME280;69117;47.148;18.954;2023-08-06T14:41:11;99412.94;;;18.86;100.00
79645;BME280;69117;47.148;18.954;2023-08-06T14:44:13;99422.88;;;18.79;100.00
79645;BME280;69117;47.148;18.954;2023-08-06T14:47:14;99419.41;;;18.71;100.00
79645;BME280;69117;47.148;18.954;2023-08-06T14:50:16;99415.31;;;18.69;100.00
79645;BME280;69117;47.148;18.954;2023-08-06T14:53:18;99421.19;;;18.59;100.00
79645;BME280;69117;47.148;18.954;2023-08-06T14:56:19;99426.47;;;18.66;100.00
79645;BME280;69117;47.148;18.954;2023-08-06T14:59:21;99412.09;;;18.60;100.00
79645;BME280;69117;47.148;18.954;2023-08-06T15:02:23;99420.75;;;18.62;100.00
79645;BME280;69117;47.148;18.954;2023-08-06T15:05:25;99430.13;;;18.71;100.00
79645;BME280;69117;47.148;18.954;2023-08-06T15:08:26;99423.41;;;18.87;100.00
79645;BME280;69117;47.148;18.954;2023-08-06T15:11:28;99432.66;;;18.91;100.00
79645;BME280;69117;47.148;18.954;2023-08-06T15:14:30;99433.59;;;18.97;100.00
79645;BME280;69117;47.148;18.954;2023-08-06T15:17:31;99449.75;;;19.09;100.00
79645;BME280;69117;47.148;18.954;2023-08-06T15:20:33;99443.03;;;19.18;100.00
79645;BME280;69117;47.148;18.954;2023-08-06T15:23:35;99446.84;;;19.29;100.00
79645;BME280;69117;47.148;18.954;2023-08-06T15:26:37;99438.47;;;19.07;100.00
79645;BME280;69117;47.148;18.954;2023-08-06T15:29:39;99460.31;;;19.40;100.00
79645;BME280;69117;47.148;18.954;2023-08-06T15:32:41;99458.09;;;20.93;100.00
79645;BME280;69117;47.148;18.954;2023-08-06T15:35:46;99452.94;;;19.54;100.00
79645;BME280;69117;47.148;18.954;2023-08-06T15:38:47;99458.66;;;19.39;100.00
79645;BME280;69117;47.148;18.954;2023-08-06T15:41:49;99466.66;;;19.09;100.00
79645;BME280;69117;47.148;18.954;2023-08-06T15:44:51;99459.34;;;19.16;100.00
79645;BME280;69117;47.148;18.954;2023-08-06T15:47:52;99460.69;;;19.07;100.00
79645;BME280;69117;47.148;18.954;2023-08-06T15:50:56;99476.41;;;18.97;100.00